sensor_id;sensor_type;location;lat;lon;timestamp;P1;durP1;ratioP1;P2;durP2;ratioP2
5460;SDS011;2753;49.196;8.286;2023-06-14T00:01:57;6.40;;;3.87;;
5460;SDS011;2753;49.196;8.286;2023-06-14T00:04:23;6.47;;;4.93;;
5460;SDS011;2753;49.196;8.286;2023-06-14T00:06:50;5.37;;;4.17;;
5460;SDS011;2753;49.196;8.286;2023-06-14T00:09:16;9.10;;;5.30;;
5460;SDS011;2753;49.196;8.286;2023-06-14T00:11:44;10.37;;;4.37;;
5460;SDS011;2753;49.196;8.286;2023-06-14T00:14:10;13.33;;;5.13;;
5460;SDS011;2753;49.196;8.286;2023-06-14T00:16:36;7.77;;;4.70;;
5460;SDS011;2753;49.196;8.286;2023-06-14T00:19:02;5.00;;;4.13;;
5460;SDS011;2753;49.196;8.286;2023-06-14T00:21:30;4.73;;;4.17;;
5460;SDS011;2753;49.196;8.286;2023-06-14T00:23:57;7.10;;;4.40;;
5460;SDS011;2753;49.196;8.286;2023-06-14T00:26:23;7.83;;;5.00;;
5460;SDS011;2753;49.196;8.286;2023-06-14T00:28:51;7.67;;;4.63;;
5460;SDS011;2753;49.196;8.286;2023-06-14T00:31:17;7.70;;;3.90;;
5460;SDS011;2753;49.196;8.286;2023-06-14T00:33:42;15.93;;;5.60;;
5460;SDS011;2753;49.196;8.286;2023-06-14T00:36:08;10.63;;;4.70;;
5460;SDS011;2753;49.196;8.286;2023-06-14T00:38:34;6.17;;;4.73;;
5460;SDS011;2753;49.196;8.286;2023-06-14T00:41:00;15.33;;;5.27;;
5460;SDS011;2753;49.196;8.286;2023-06-14T00:43:25;5.13;;;4.13;;
5460;SDS011;2753;49.196;8.286;2023-06-14T00:45:51;8.77;;;5.47;;
5460;SDS011;2753;49.196;8.286;2023-06-14T00:48:17;11.50;;;5.47;;
5460;SDS011;2753;49.196;8.286;2023-06-14T00:50:44;16.13;;;5.50;;
5460;SDS011;2753;49.196;8.286;2023-06-14T00:53:14;10.03;;;5.13;;
5460;SDS011;2753;49.196;8.286;2023-06-14T00:55:40;10.13;;;4.70;;
5460;SDS011;2753;49.196;8.286;2023-06-14T00:58:06;6.90;;;4.77;;
5460;SDS011;2753;49.196;8.286;2023-06-14T01:00:32;7.97;;;4.40;;
5460;SDS011;2753;49.196;8.286;2023-06-14T01:02:58;9.77;;;4.80;;
5460;SDS011;2753;49.196;8.286;2023-06-14T01:05:24;8.40;;;5.17;;
5460;SDS011;2753;49.196;8.286;2023-06-14T01:11:10;6.07;;;4.83;;
5460;SDS011;2753;49.196;8.286;2023-06-14T01:13:43;6.83;;;4.97;;
5460;SDS011;2753;49.196;8.286;2023-06-14T01:16:11;9.80;;;5.03;;
5460;SDS011;2753;49.196;8.286;2023-06-14T01:18:37;10.90;;;4.60;;
5460;SDS011;2753;49.196;8.286;2023-06-14T01:21:04;11.37;;;5.60;;
5460;SDS011;2753;49.196;8.286;2023-06-14T01:23:31;8.97;;;4.30;;
5460;SDS011;2753;49.196;8.286;2023-06-14T01:26:00;11.20;;;4.67;;
5460;SDS011;2753;49.196;8.286;2023-06-14T01:28:28;7.03;;;5.23;;
5460;SDS011;2753;49.196;8.286;2023-06-14T01:30:59;14.70;;;5.10;;
5460;SDS011;2753;49.196;8.286;2023-06-14T01:33:29;7.60;;;4.60;;
5460;SDS011;2753;49.196;8.286;2023-06-14T01:35:57;7.90;;;4.80;;
5460;SDS011;2753;49.196;8.286;2023-06-14T01:38:24;5.93;;;5.07;;
5460;SDS011;2753;49.196;8.286;2023-06-14T01:40:51;8.73;;;4.57;;
5460;SDS011;2753;49.196;8.286;2023-06-14T01:43:20;5.83;;;4.50;;
5460;SDS011;2753;49.196;8.286;2023-06-14T01:45:48;6.50;;;4.70;;
5460;SDS011;2753;49.196;8.286;2023-06-14T01:48:15;6.37;;;4.90;;
5460;SDS011;2753;49.196;8.286;2023-06-14T01:50:41;5.70;;;4.60;;
5460;SDS011;2753;49.196;8.286;2023-06-14T01:53:08;8.03;;;5.00;;
5460;SDS011;2753;49.196;8.286;2023-06-14T01:55:35;8.67;;;5.80;;
5460;SDS011;2753;49.196;8.286;2023-06-14T01:58:05;13.70;;;4.53;;
5460;SDS011;2753;49.196;8.286;2023-06-14T02:03:06;11.00;;;5.20;;
5460;SDS011;2753;49.196;8.286;2023-06-14T02:05:32;10.10;;;4.87;;
5460;SDS011;2753;49.196;8.286;2023-06-14T02:07:59;5.27;;;4.77;;
5460;SDS011;2753;49.196;8.286;2023-06-14T02:10:25;13.67;;;5.70;;
5460;SDS011;2753;49.196;8.286;2023-06-14T02:12:51;13.10;;;6.03;;
5460;SDS011;2753;49.196;8.286;2023-06-14T02:15:17;10.80;;;5.33;;
5460;SDS011;2753;49.196;8.286;2023-06-14T02:17:44;11.53;;;5.10;;
5460;SDS011;2753;49.196;8.286;2023-06-14T02:20:14;8.03;;;6.10;;
5460;SDS011;2753;49.196;8.286;2023-06-14T02:22:40;6.00;;;5.20;;
5460;SDS011;2753;49.196;8.286;2023-06-14T02:25:06;6.67;;;4.93;;
5460;SDS011;2753;49.196;8.286;2023-06-14T02:27:32;11.97;;;5.07;;
5460;SDS011;2753;49.196;8.286;2023-06-14T02:29:59;7.10;;;4.73;;
5460;SDS011;2753;49.196;8.286;2023-06-14T02:32:25;7.03;;;4.80;;
5460;SDS011;2753;49.196;8.286;2023-06-14T02:34:54;6.63;;;5.10;;
5460;SDS011;2753;49.196;8.286;2023-06-14T02:37:19;10.77;;;4.80;;
5460;SDS011;2753;49.196;8.286;2023-06-14T02:39:45;7.37;;;5.10;;
5460;SDS011;2753;49.196;8.286;2023-06-14T02:42:11;28.60;;;5.80;;
5460;SDS011;2753;49.196;8.286;2023-06-14T02:44:37;6.33;;;5.20;;
5460;SDS011;2753;49.196;8.286;2023-06-14T02:47:03;9.80;;;5.00;;
5460;SDS011;2753;49.196;8.286;2023-06-14T02:49:30;9.27;;;4.90;;
5460;SDS011;2753;49.196;8.286;2023-06-14T02:51:55;6.40;;;4.67;;
5460;SDS011;2753;49.196;8.286;2023-06-14T02:54:21;6.60;;;4.63;;
5460;SDS011;2753;49.196;8.286;2023-06-14T02:56:47;7.67;;;5.80;;
5460;SDS011;2753;49.196;8.286;2023-06-14T02:59:13;5.70;;;5.00;;
5460;SDS011;2753;49.196;8.286;2023-06-14T03:01:40;5.23;;;4.73;;
5460;SDS011;2753;49.196;8.286;2023-06-14T03:04:09;6.83;;;4.93;;
5460;SDS011;2753;49.196;8.286;2023-06-14T03:06:35;9.70;;;5.93;;
5460;SDS011;2753;49.196;8.286;2023-06-14T03:09:02;8.70;;;5.53;;
5460;SDS011;2753;49.196;8.286;2023-06-14T03:11:31;9.63;;;5.20;;
5460;SDS011;2753;49.196;8.286;2023-06-14T03:13:57;10.23;;;5.03;;
5460;SDS011;2753;49.196;8.286;2023-06-14T03:16:23;11.20;;;5.40;;
5460;SDS011;2753;49.196;8.286;2023-06-14T03:18:52;6.83;;;5.40;;
5460;SDS011;2753;49.196;8.286;2023-06-14T03:21:18;6.03;;;5.23;;
5460;SDS011;2753;49.196;8.286;2023-06-14T03:23:45;8.60;;;5.33;;
5460;SDS011;2753;49.196;8.286;2023-06-14T03:26:11;5.43;;;4.97;;
5460;SDS011;2753;49.196;8.286;2023-06-14T03:28:43;13.87;;;5.03;;
5460;SDS011;2753;49.196;8.286;2023-06-14T03:31:12;15.23;;;5.30;;
5460;SDS011;2753;49.196;8.286;2023-06-14T03:33:38;6.13;;;5.30;;
5460;SDS011;2753;49.196;8.286;2023-06-14T03:36:05;8.80;;;5.40;;
5460;SDS011;2753;49.196;8.286;2023-06-14T03:38:31;8.00;;;5.80;;
5460;SDS011;2753;49.196;8.286;2023-06-14T03:40:57;5.63;;;5.10;;
5460;SDS011;2753;49.196;8.286;2023-06-14T03:43:23;13.73;;;6.10;;
5460;SDS011;2753;49.196;8.286;2023-06-14T03:45:49;8.60;;;5.30;;
5460;SDS011;2753;49.196;8.286;2023-06-14T03:48:14;6.23;;;5.60;;
5460;SDS011;2753;49.196;8.286;2023-06-14T03:50:40;8.27;;;5.70;;
5460;SDS011;2753;49.196;8.286;2023-06-14T03:53:07;6.20;;;5.00;;
5460;SDS011;2753;49.196;8.286;2023-06-14T03:55:33;5.87;;;5.33;;
5460;SDS011;2753;49.196;8.286;2023-06-14T03:57:59;8.43;;;5.80;;
5460;SDS011;2753;49.196;8.286;2023-06-14T04:00:26;5.97;;;5.30;;
5460;SDS011;2753;49.196;8.286;2023-06-14T04:02:52;7.73;;;5.83;;
5460;SDS011;2753;49.196;8.286;2023-06-14T04:05:18;8.27;;;5.53;;
5460;SDS011;2753;49.196;8.286;2023-06-14T04:07:47;13.30;;;5.50;;
5460;SDS011;2753;49.196;8.286;2023-06-14T04:10:13;5.40;;;4.87;;
5460;SDS011;2753;49.196;8.286;2023-06-14T04:12:40;7.47;;;5.33;;
5460;SDS011;2753;49.196;8.286;2023-06-14T04:15:07;8.60;;;5.60;;
5460;SDS011;2753;49.196;8.286;2023-06-14T04:17:36;19.57;;;6.17;;
5460;SDS011;2753;49.196;8.286;2023-06-14T04:20:03;9.90;;;5.30;;
5460;SDS011;2753;49.196;8.286;2023-06-14T04:22:31;5.30;;;4.90;;
5460;SDS011;2753;49.196;8.286;2023-06-14T04:24:57;10.90;;;5.40;;
5460;SDS011;2753;49.196;8.286;2023-06-14T04:27:24;7.00;;;5.30;;
5460;SDS011;2753;49.196;8.286;2023-06-14T04:29:54;5.70;;;5.10;;
5460;SDS011;2753;49.196;8.286;2023-06-14T04:32:24;6.17;;;5.40;;
5460;SDS011;2753;49.196;8.286;2023-06-14T04:34:54;9.70;;;6.10;;
5460;SDS011;2753;49.196;8.286;2023-06-14T04:37:21;6.97;;;5.03;;
5460;SDS011;2753;49.196;8.286;2023-06-14T04:39:47;5.87;;;4.87;;
5460;SDS011;2753;49.196;8.286;2023-06-14T04:42:14;9.50;;;5.47;;
5460;SDS011;2753;49.196;8.286;2023-06-14T04:44:41;9.13;;;5.83;;
5460;SDS011;2753;49.196;8.286;2023-06-14T04:47:08;8.93;;;5.00;;
5460;SDS011;2753;49.196;8.286;2023-06-14T04:49:34;10.03;;;4.90;;
5460;SDS011;2753;49.196;8.286;2023-06-14T04:52:00;9.57;;;5.60;;
5460;SDS011;2753;49.196;8.286;2023-06-14T04:54:29;11.83;;;5.20;;
5460;SDS011;2753;49.196;8.286;2023-06-14T04:56:56;7.30;;;5.03;;
5460;SDS011;2753;49.196;8.286;2023-06-14T04:59:22;11.23;;;4.80;;
5460;SDS011;2753;49.196;8.286;2023-06-14T05:01:49;7.27;;;5.30;;
5460;SDS011;2753;49.196;8.286;2023-06-14T05:04:15;5.23;;;4.73;;
5460;SDS011;2753;49.196;8.286;2023-06-14T05:06:42;8.80;;;5.53;;
5460;SDS011;2753;49.196;8.286;2023-06-14T05:09:13;10.57;;;4.73;;
5460;SDS011;2753;49.196;8.286;2023-06-14T05:11:40;7.80;;;4.80;;
5460;SDS011;2753;49.196;8.286;2023-06-14T05:14:09;6.30;;;4.57;;
5460;SDS011;2753;49.196;8.286;2023-06-14T05:16:36;5.50;;;4.70;;
5460;SDS011;2753;49.196;8.286;2023-06-14T05:19:02;6.97;;;5.30;;
5460;SDS011;2753;49.196;8.286;2023-06-14T05:21:29;9.60;;;4.13;;
5460;SDS011;2753;49.196;8.286;2023-06-14T05:23:55;6.90;;;4.50;;
5460;SDS011;2753;49.196;8.286;2023-06-14T05:26:21;9.60;;;5.40;;
5460;SDS011;2753;49.196;8.286;2023-06-14T05:28:48;5.90;;;4.53;;
5460;SDS011;2753;49.196;8.286;2023-06-14T05:31:15;8.17;;;4.70;;
5460;SDS011;2753;49.196;8.286;2023-06-14T05:33:41;5.40;;;4.80;;
5460;SDS011;2753;49.196;8.286;2023-06-14T05:36:06;9.87;;;5.00;;
5460;SDS011;2753;49.196;8.286;2023-06-14T05:38:32;8.00;;;5.17;;
5460;SDS011;2753;49.196;8.286;2023-06-14T05:40:58;10.13;;;5.17;;
5460;SDS011;2753;49.196;8.286;2023-06-14T05:43:24;9.10;;;5.17;;
5460;SDS011;2753;49.196;8.286;2023-06-14T05:45:50;6.87;;;4.70;;
5460;SDS011;2753;49.196;8.286;2023-06-14T05:48:15;11.90;;;5.13;;
5460;SDS011;2753;49.196;8.286;2023-06-14T05:50:41;5.90;;;5.33;;
5460;SDS011;2753;49.196;8.286;2023-06-14T05:53:07;5.60;;;5.10;;
5460;SDS011;2753;49.196;8.286;2023-06-14T05:55:32;6.43;;;5.10;;
5460;SDS011;2753;49.196;8.286;2023-06-14T05:57:58;8.43;;;5.47;;
5460;SDS011;2753;49.196;8.286;2023-06-14T06:03:18;11.57;;;4.70;;
5460;SDS011;2753;49.196;8.286;2023-06-14T06:05:44;5.13;;;4.63;;
5460;SDS011;2753;49.196;8.286;2023-06-14T06:08:09;8.10;;;5.10;;
5460;SDS011;2753;49.196;8.286;2023-06-14T06:10:35;6.43;;;4.80;;
5460;SDS011;2753;49.196;8.286;2023-06-14T06:13:01;6.37;;;4.73;;
5460;SDS011;2753;49.196;8.286;2023-06-14T06:15:27;7.10;;;5.00;;
5460;SDS011;2753;49.196;8.286;2023-06-14T06:17:53;7.87;;;4.60;;
5460;SDS011;2753;49.196;8.286;2023-06-14T06:20:18;7.73;;;4.93;;
5460;SDS011;2753;49.196;8.286;2023-06-14T06:22:44;5.53;;;4.93;;
5460;SDS011;2753;49.196;8.286;2023-06-14T06:25:10;8.40;;;5.17;;
5460;SDS011;2753;49.196;8.286;2023-06-14T06:27:35;11.30;;;5.07;;
5460;SDS011;2753;49.196;8.286;2023-06-14T06:30:03;11.93;;;4.83;;
5460;SDS011;2753;49.196;8.286;2023-06-14T06:32:28;5.63;;;5.00;;
5460;SDS011;2753;49.196;8.286;2023-06-14T06:34:54;8.20;;;5.27;;
5460;SDS011;2753;49.196;8.286;2023-06-14T06:37:20;13.87;;;5.30;;
5460;SDS011;2753;49.196;8.286;2023-06-14T06:39:46;6.97;;;4.40;;
5460;SDS011;2753;49.196;8.286;2023-06-14T06:42:12;13.33;;;4.93;;
5460;SDS011;2753;49.196;8.286;2023-06-14T06:44:38;15.70;;;5.40;;
5460;SDS011;2753;49.196;8.286;2023-06-14T06:47:04;16.93;;;4.63;;
5460;SDS011;2753;49.196;8.286;2023-06-14T06:49:30;6.60;;;5.17;;
5460;SDS011;2753;49.196;8.286;2023-06-14T06:51:59;7.97;;;5.07;;
5460;SDS011;2753;49.196;8.286;2023-06-14T06:54:27;7.97;;;5.10;;
5460;SDS011;2753;49.196;8.286;2023-06-14T06:56:52;13.30;;;4.90;;
5460;SDS011;2753;49.196;8.286;2023-06-14T06:59:18;11.83;;;4.80;;
5460;SDS011;2753;49.196;8.286;2023-06-14T07:01:44;16.20;;;4.87;;
5460;SDS011;2753;49.196;8.286;2023-06-14T07:04:10;14.57;;;5.30;;
5460;SDS011;2753;49.196;8.286;2023-06-14T07:06:35;12.23;;;4.90;;
5460;SDS011;2753;49.196;8.286;2023-06-14T07:09:02;8.90;;;5.17;;
5460;SDS011;2753;49.196;8.286;2023-06-14T07:11:29;7.80;;;5.23;;
5460;SDS011;2753;49.196;8.286;2023-06-14T07:13:55;7.77;;;4.87;;
5460;SDS011;2753;49.196;8.286;2023-06-14T07:16:21;8.87;;;5.40;;
5460;SDS011;2753;49.196;8.286;2023-06-14T07:18:46;13.63;;;4.90;;
5460;SDS011;2753;49.196;8.286;2023-06-14T07:21:12;9.17;;;5.13;;
5460;SDS011;2753;49.196;8.286;2023-06-14T07:23:38;8.07;;;6.07;;
5460;SDS011;2753;49.196;8.286;2023-06-14T07:26:03;4.93;;;4.43;;
5460;SDS011;2753;49.196;8.286;2023-06-14T07:28:30;8.73;;;4.67;;
5460;SDS011;2753;49.196;8.286;2023-06-14T07:30:55;7.73;;;5.43;;
5460;SDS011;2753;49.196;8.286;2023-06-14T07:33:21;12.43;;;5.70;;
5460;SDS011;2753;49.196;8.286;2023-06-14T07:35:47;8.10;;;4.43;;
5460;SDS011;2753;49.196;8.286;2023-06-14T07:38:13;13.10;;;5.10;;
5460;SDS011;2753;49.196;8.286;2023-06-14T07:40:39;10.10;;;5.07;;
5460;SDS011;2753;49.196;8.286;2023-06-14T07:43:05;9.07;;;5.00;;
5460;SDS011;2753;49.196;8.286;2023-06-14T07:45:30;11.47;;;5.20;;
5460;SDS011;2753;49.196;8.286;2023-06-14T07:47:56;8.17;;;5.50;;
5460;SDS011;2753;49.196;8.286;2023-06-14T07:50:22;11.27;;;4.83;;
5460;SDS011;2753;49.196;8.286;2023-06-14T07:52:48;14.40;;;4.80;;
5460;SDS011;2753;49.196;8.286;2023-06-14T07:55:14;10.00;;;4.87;;
5460;SDS011;2753;49.196;8.286;2023-06-14T07:57:40;8.87;;;4.23;;
5460;SDS011;2753;49.196;8.286;2023-06-14T08:00:06;9.33;;;4.50;;
5460;SDS011;2753;49.196;8.286;2023-06-14T08:02:32;7.87;;;5.37;;
5460;SDS011;2753;49.196;8.286;2023-06-14T08:04:57;5.87;;;4.73;;
5460;SDS011;2753;49.196;8.286;2023-06-14T08:07:24;6.33;;;4.60;;
5460;SDS011;2753;49.196;8.286;2023-06-14T08:09:49;7.93;;;5.00;;
5460;SDS011;2753;49.196;8.286;2023-06-14T08:12:15;4.80;;;4.30;;
5460;SDS011;2753;49.196;8.286;2023-06-14T08:14:41;9.70;;;4.90;;
5460;SDS011;2753;49.196;8.286;2023-06-14T08:17:07;15.40;;;6.13;;
5460;SDS011;2753;49.196;8.286;2023-06-14T08:19:33;9.60;;;5.30;;
5460;SDS011;2753;49.196;8.286;2023-06-14T08:21:59;8.63;;;4.90;;
5460;SDS011;2753;49.196;8.286;2023-06-14T08:24:25;6.17;;;4.60;;
5460;SDS011;2753;49.196;8.286;2023-06-14T08:26:53;9.00;;;5.30;;
5460;SDS011;2753;49.196;8.286;2023-06-14T08:29:19;10.00;;;5.23;;
5460;SDS011;2753;49.196;8.286;2023-06-14T08:31:45;6.70;;;5.53;;
5460;SDS011;2753;49.196;8.286;2023-06-14T08:34:11;14.23;;;4.90;;
5460;SDS011;2753;49.196;8.286;2023-06-14T08:36:36;8.63;;;5.70;;
5460;SDS011;2753;49.196;8.286;2023-06-14T08:39:02;16.67;;;6.00;;
5460;SDS011;2753;49.196;8.286;2023-06-14T08:41:28;10.20;;;5.03;;
5460;SDS011;2753;49.196;8.286;2023-06-14T08:43:55;7.93;;;4.17;;
5460;SDS011;2753;49.196;8.286;2023-06-14T08:46:21;7.83;;;4.53;;
5460;SDS011;2753;49.196;8.286;2023-06-14T08:48:52;7.70;;;4.70;;
5460;SDS011;2753;49.196;8.286;2023-06-14T08:51:22;12.10;;;4.47;;
5460;SDS011;2753;49.196;8.286;2023-06-14T08:53:52;8.10;;;4.60;;
5460;SDS011;2753;49.196;8.286;2023-06-14T08:56:26;5.47;;;4.30;;
5460;SDS011;2753;49.196;8.286;2023-06-14T08:58:53;8.53;;;4.77;;
5460;SDS011;2753;49.196;8.286;2023-06-14T09:01:19;7.23;;;4.70;;
5460;SDS011;2753;49.196;8.286;2023-06-14T09:03:47;14.53;;;5.47;;
5460;SDS011;2753;49.196;8.286;2023-06-14T09:06:14;7.30;;;4.93;;
5460;SDS011;2753;49.196;8.286;2023-06-14T09:08:44;5.03;;;4.57;;
5460;SDS011;2753;49.196;8.286;2023-06-14T09:11:12;9.90;;;4.97;;
5460;SDS011;2753;49.196;8.286;2023-06-14T09:13:40;8.97;;;5.00;;
5460;SDS011;2753;49.196;8.286;2023-06-14T09:16:06;12.30;;;4.53;;
5460;SDS011;2753;49.196;8.286;2023-06-14T09:18:34;5.30;;;4.80;;
5460;SDS011;2753;49.196;8.286;2023-06-14T09:21:00;12.60;;;4.77;;
5460;SDS011;2753;49.196;8.286;2023-06-14T09:23:26;8.07;;;4.87;;
5460;SDS011;2753;49.196;8.286;2023-06-14T09:25:52;13.47;;;5.20;;
5460;SDS011;2753;49.196;8.286;2023-06-14T09:28:18;9.70;;;4.83;;
5460;SDS011;2753;49.196;8.286;2023-06-14T09:30:47;10.30;;;5.37;;
5460;SDS011;2753;49.196;8.286;2023-06-14T09:33:16;5.93;;;4.90;;
5460;SDS011;2753;49.196;8.286;2023-06-14T09:35:44;6.30;;;4.23;;
5460;SDS011;2753;49.196;8.286;2023-06-14T09:38:11;5.17;;;4.40;;
5460;SDS011;2753;49.196;8.286;2023-06-14T09:40:39;6.97;;;4.07;;
5460;SDS011;2753;49.196;8.286;2023-06-14T09:43:05;10.70;;;4.27;;
5460;SDS011;2753;49.196;8.286;2023-06-14T09:45:34;6.03;;;4.60;;
5460;SDS011;2753;49.196;8.286;2023-06-14T09:48:00;15.50;;;4.90;;
5460;SDS011;2753;49.196;8.286;2023-06-14T09:50:27;17.13;;;5.10;;
5460;SDS011;2753;49.196;8.286;2023-06-14T09:52:52;8.50;;;4.83;;
5460;SDS011;2753;49.196;8.286;2023-06-14T09:55:23;6.47;;;4.30;;
5460;SDS011;2753;49.196;8.286;2023-06-14T09:57:52;6.00;;;4.43;;
5460;SDS011;2753;49.196;8.286;2023-06-14T10:00:19;8.53;;;4.20;;
5460;SDS011;2753;49.196;8.286;2023-06-14T10:02:46;5.67;;;3.83;;
5460;SDS011;2753;49.196;8.286;2023-06-14T10:05:19;11.93;;;4.40;;
5460;SDS011;2753;49.196;8.286;2023-06-14T10:10:12;4.60;;;4.17;;
5460;SDS011;2753;49.196;8.286;2023-06-14T10:12:38;6.13;;;4.07;;
5460;SDS011;2753;49.196;8.286;2023-06-14T10:15:04;4.07;;;3.73;;
5460;SDS011;2753;49.196;8.286;2023-06-14T10:17:44;5.67;;;4.10;;
5460;SDS011;2753;49.196;8.286;2023-06-14T10:20:28;10.13;;;4.53;;
5460;SDS011;2753;49.196;8.286;2023-06-14T10:23:20;10.87;;;4.17;;
5460;SDS011;2753;49.196;8.286;2023-06-14T10:25:56;5.80;;;3.60;;
5460;SDS011;2753;49.196;8.286;2023-06-14T10:28:22;4.80;;;3.73;;
5460;SDS011;2753;49.196;8.286;2023-06-14T10:33:34;3.90;;;3.37;;
5460;SDS011;2753;49.196;8.286;2023-06-14T10:39:04;9.13;;;3.70;;
5460;SDS011;2753;49.196;8.286;2023-06-14T10:41:39;7.63;;;3.60;;
5460;SDS011;2753;49.196;8.286;2023-06-14T10:46:37;3.50;;;2.97;;
5460;SDS011;2753;49.196;8.286;2023-06-14T10:52:13;17.07;;;3.37;;
5460;SDS011;2753;49.196;8.286;2023-06-14T10:57:34;9.43;;;3.33;;
5460;SDS011;2753;49.196;8.286;2023-06-14T11:00:00;6.83;;;3.00;;
5460;SDS011;2753;49.196;8.286;2023-06-14T11:05:05;10.47;;;3.30;;
5460;SDS011;2753;49.196;8.286;2023-06-14T11:10:31;4.40;;;3.40;;
5460;SDS011;2753;49.196;8.286;2023-06-14T11:13:08;4.33;;;3.17;;
5460;SDS011;2753;49.196;8.286;2023-06-14T11:15:34;6.50;;;2.80;;
5460;SDS011;2753;49.196;8.286;2023-06-14T11:18:02;4.80;;;3.13;;
5460;SDS011;2753;49.196;8.286;2023-06-14T11:20:30;3.20;;;3.00;;
5460;SDS011;2753;49.196;8.286;2023-06-14T11:22:57;4.60;;;3.40;;
5460;SDS011;2753;49.196;8.286;2023-06-14T11:25:23;3.20;;;2.90;;
5460;SDS011;2753;49.196;8.286;2023-06-14T11:27:49;14.97;;;3.33;;
5460;SDS011;2753;49.196;8.286;2023-06-14T11:30:16;10.30;;;3.23;;
5460;SDS011;2753;49.196;8.286;2023-06-14T11:32:42;3.37;;;3.07;;
5460;SDS011;2753;49.196;8.286;2023-06-14T11:35:11;4.63;;;3.30;;
5460;SDS011;2753;49.196;8.286;2023-06-14T11:37:36;5.40;;;3.47;;
5460;SDS011;2753;49.196;8.286;2023-06-14T11:40:04;14.73;;;3.70;;
5460;SDS011;2753;49.196;8.286;2023-06-14T11:42:34;4.20;;;3.40;;
5460;SDS011;2753;49.196;8.286;2023-06-14T11:45:01;5.30;;;3.10;;
5460;SDS011;2753;49.196;8.286;2023-06-14T11:47:34;8.40;;;3.03;;
5460;SDS011;2753;49.196;8.286;2023-06-14T11:50:01;6.40;;;3.20;;
5460;SDS011;2753;49.196;8.286;2023-06-14T11:52:28;6.13;;;2.93;;
5460;SDS011;2753;49.196;8.286;2023-06-14T11:54:53;3.50;;;3.20;;
5460;SDS011;2753;49.196;8.286;2023-06-14T11:57:23;3.30;;;3.10;;
5460;SDS011;2753;49.196;8.286;2023-06-14T11:59:49;4.10;;;3.27;;
5460;SDS011;2753;49.196;8.286;2023-06-14T12:02:16;4.50;;;3.73;;
5460;SDS011;2753;49.196;8.286;2023-06-14T12:04:42;3.57;;;3.27;;
5460;SDS011;2753;49.196;8.286;2023-06-14T12:07:12;8.33;;;3.40;;
5460;SDS011;2753;49.196;8.286;2023-06-14T12:12:23;5.83;;;3.80;;
5460;SDS011;2753;49.196;8.286;2023-06-14T12:14:54;2.60;;;2.40;;
5460;SDS011;2753;49.196;8.286;2023-06-14T12:17:21;4.13;;;3.57;;
5460;SDS011;2753;49.196;8.286;2023-06-14T12:19:48;6.90;;;3.70;;
5460;SDS011;2753;49.196;8.286;2023-06-14T12:22:15;4.33;;;3.93;;
5460;SDS011;2753;49.196;8.286;2023-06-14T12:24:44;4.13;;;3.07;;
5460;SDS011;2753;49.196;8.286;2023-06-14T12:27:11;5.53;;;3.40;;
5460;SDS011;2753;49.196;8.286;2023-06-14T12:29:40;4.37;;;3.17;;
5460;SDS011;2753;49.196;8.286;2023-06-14T12:32:10;3.33;;;2.80;;
5460;SDS011;2753;49.196;8.286;2023-06-14T12:34:36;4.10;;;3.70;;
5460;SDS011;2753;49.196;8.286;2023-06-14T12:37:02;5.90;;;2.77;;
5460;SDS011;2753;49.196;8.286;2023-06-14T12:39:29;5.83;;;3.60;;
5460;SDS011;2753;49.196;8.286;2023-06-14T12:41:56;7.60;;;3.33;;
5460;SDS011;2753;49.196;8.286;2023-06-14T12:44:22;3.50;;;3.30;;
5460;SDS011;2753;49.196;8.286;2023-06-14T12:46:48;3.57;;;3.27;;
5460;SDS011;2753;49.196;8.286;2023-06-14T12:49:16;5.23;;;2.90;;
5460;SDS011;2753;49.196;8.286;2023-06-14T12:51:42;6.47;;;4.03;;
5460;SDS011;2753;49.196;8.286;2023-06-14T12:54:08;5.43;;;3.40;;
5460;SDS011;2753;49.196;8.286;2023-06-14T12:56:34;5.47;;;3.40;;
5460;SDS011;2753;49.196;8.286;2023-06-14T12:59:00;4.97;;;3.33;;
5460;SDS011;2753;49.196;8.286;2023-06-14T13:01:26;4.07;;;2.70;;
5460;SDS011;2753;49.196;8.286;2023-06-14T13:03:51;5.97;;;3.23;;
5460;SDS011;2753;49.196;8.286;2023-06-14T13:06:22;5.70;;;3.70;;
5460;SDS011;2753;49.196;8.286;2023-06-14T13:08:48;4.73;;;3.27;;
5460;SDS011;2753;49.196;8.286;2023-06-14T13:11:14;3.50;;;3.20;;
5460;SDS011;2753;49.196;8.286;2023-06-14T13:13:39;3.27;;;3.07;;
5460;SDS011;2753;49.196;8.286;2023-06-14T13:16:05;6.03;;;3.67;;
5460;SDS011;2753;49.196;8.286;2023-06-14T13:18:31;3.33;;;3.07;;
5460;SDS011;2753;49.196;8.286;2023-06-14T13:20:58;5.63;;;3.30;;
5460;SDS011;2753;49.196;8.286;2023-06-14T13:23:24;3.33;;;3.00;;
5460;SDS011;2753;49.196;8.286;2023-06-14T13:25:50;5.67;;;3.80;;
5460;SDS011;2753;49.196;8.286;2023-06-14T13:28:17;3.63;;;3.43;;
5460;SDS011;2753;49.196;8.286;2023-06-14T13:30:42;7.67;;;3.17;;
5460;SDS011;2753;49.196;8.286;2023-06-14T13:33:08;6.03;;;3.93;;
5460;SDS011;2753;49.196;8.286;2023-06-14T13:35:34;4.00;;;3.07;;
5460;SDS011;2753;49.196;8.286;2023-06-14T13:38:00;5.60;;;3.40;;
5460;SDS011;2753;49.196;8.286;2023-06-14T13:40:26;4.73;;;3.00;;
5460;SDS011;2753;49.196;8.286;2023-06-14T13:42:51;5.60;;;3.97;;
5460;SDS011;2753;49.196;8.286;2023-06-14T13:45:17;4.67;;;3.27;;
5460;SDS011;2753;49.196;8.286;2023-06-14T13:47:43;3.57;;;3.27;;
5460;SDS011;2753;49.196;8.286;2023-06-14T13:50:09;6.70;;;3.27;;
5460;SDS011;2753;49.196;8.286;2023-06-14T13:52:35;3.50;;;3.20;;
5460;SDS011;2753;49.196;8.286;2023-06-14T13:55:01;11.43;;;3.83;;
5460;SDS011;2753;49.196;8.286;2023-06-14T13:57:27;3.47;;;3.17;;
5460;SDS011;2753;49.196;8.286;2023-06-14T13:59:53;4.80;;;3.33;;
5460;SDS011;2753;49.196;8.286;2023-06-14T14:02:23;7.37;;;3.37;;
5460;SDS011;2753;49.196;8.286;2023-06-14T14:04:53;4.00;;;3.40;;
5460;SDS011;2753;49.196;8.286;2023-06-14T14:07:19;8.83;;;3.50;;
5460;SDS011;2753;49.196;8.286;2023-06-14T14:09:45;10.57;;;3.03;;
5460;SDS011;2753;49.196;8.286;2023-06-14T14:12:12;5.53;;;3.47;;
5460;SDS011;2753;49.196;8.286;2023-06-14T14:14:39;5.77;;;3.23;;
5460;SDS011;2753;49.196;8.286;2023-06-14T14:17:05;3.13;;;2.93;;
5460;SDS011;2753;49.196;8.286;2023-06-14T14:19:31;3.33;;;2.70;;
5460;SDS011;2753;49.196;8.286;2023-06-14T14:21:57;3.10;;;2.90;;
5460;SDS011;2753;49.196;8.286;2023-06-14T14:24:23;5.97;;;3.47;;
5460;SDS011;2753;49.196;8.286;2023-06-14T14:26:48;3.47;;;3.17;;
5460;SDS011;2753;49.196;8.286;2023-06-14T14:29:15;7.07;;;3.50;;
5460;SDS011;2753;49.196;8.286;2023-06-14T14:31:42;9.03;;;3.13;;
5460;SDS011;2753;49.196;8.286;2023-06-14T14:34:07;4.10;;;3.80;;
5460;SDS011;2753;49.196;8.286;2023-06-14T14:36:33;4.13;;;3.40;;
5460;SDS011;2753;49.196;8.286;2023-06-14T14:39:02;3.57;;;3.10;;
5460;SDS011;2753;49.196;8.286;2023-06-14T14:41:32;7.13;;;3.17;;
5460;SDS011;2753;49.196;8.286;2023-06-14T14:43:57;3.70;;;3.40;;
5460;SDS011;2753;49.196;8.286;2023-06-14T14:46:25;3.80;;;3.43;;
5460;SDS011;2753;49.196;8.286;2023-06-14T14:48:52;3.77;;;3.33;;
5460;SDS011;2753;49.196;8.286;2023-06-14T14:51:18;7.40;;;2.97;;
5460;SDS011;2753;49.196;8.286;2023-06-14T14:53:43;4.80;;;3.30;;
5460;SDS011;2753;49.196;8.286;2023-06-14T14:56:09;8.30;;;3.17;;
5460;SDS011;2753;49.196;8.286;2023-06-14T14:58:36;6.23;;;3.27;;
5460;SDS011;2753;49.196;8.286;2023-06-14T15:01:02;6.20;;;3.53;;
5460;SDS011;2753;49.196;8.286;2023-06-14T15:03:30;2.90;;;2.80;;
5460;SDS011;2753;49.196;8.286;2023-06-14T15:05:56;10.70;;;3.17;;
5460;SDS011;2753;49.196;8.286;2023-06-14T15:08:22;3.90;;;3.60;;
5460;SDS011;2753;49.196;8.286;2023-06-14T15:10:48;3.07;;;2.87;;
5460;SDS011;2753;49.196;8.286;2023-06-14T15:13:14;3.67;;;3.30;;
5460;SDS011;2753;49.196;8.286;2023-06-14T15:15:39;8.63;;;3.40;;
5460;SDS011;2753;49.196;8.286;2023-06-14T15:18:05;6.47;;;3.40;;
5460;SDS011;2753;49.196;8.286;2023-06-14T15:20:30;4.20;;;3.90;;
5460;SDS011;2753;49.196;8.286;2023-06-14T15:22:56;4.30;;;3.43;;
5460;SDS011;2753;49.196;8.286;2023-06-14T15:25:28;7.00;;;4.37;;
5460;SDS011;2753;49.196;8.286;2023-06-14T15:27:54;3.90;;;3.20;;
5460;SDS011;2753;49.196;8.286;2023-06-14T15:30:21;8.13;;;3.07;;
5460;SDS011;2753;49.196;8.286;2023-06-14T15:32:47;5.20;;;3.40;;
5460;SDS011;2753;49.196;8.286;2023-06-14T15:35:13;4.10;;;3.70;;
5460;SDS011;2753;49.196;8.286;2023-06-14T15:37:40;3.37;;;3.17;;
5460;SDS011;2753;49.196;8.286;2023-06-14T15:40:05;3.60;;;3.33;;
5460;SDS011;2753;49.196;8.286;2023-06-14T15:42:31;8.00;;;3.80;;
5460;SDS011;2753;49.196;8.286;2023-06-14T15:44:57;5.40;;;3.57;;